Latest Weather Observations for Neptune Island

IDS60801

Issued at 5:32 pm CST Sunday 26 April 2015 (issued every 30 minutes, with the page automatically refreshed every 10 minutes)

About weather observations | Map of weather stations | Latest weather observations for SA | Other Formats
Station Details ID: 018115 Name: NEPTUNE ISLAND Lat: -35.34 Lon: 136.12 Height: 32.0 m
Data from the previous 72 hours. | See also: Recent months at Neptune Island
Date/Time
CST
Temp
°C
App
Temp
°C
Dew
Point
Rel
Hum
%
Delta-T
°C
Wind Press
QNH
hPa
Press
MSL
hPa
Rain
since 9 am
mm
Dir
 
Spd
km/h
Gust
km/h
Spd
kts
Gust
kts
26/05:30pm 14.9 11.1 7.7 62 3.6 SSW 17 22 9 12 1026.1 1026.0 0.0
26/05:00pm 14.9 10.3 6.7 58 4.0 SSW 20 26 11 14 1026.0 1025.9 0.0
26/04:30pm 14.9 10.2 7.9 63 3.5 SSW 22 30 12 16 1025.7 1025.6 0.0
26/04:00pm 14.8 9.7 7.6 62 3.6 SSW 24 30 13 16 1025.7 1025.6 0.0
26/03:30pm 14.7 10.9 9.1 69 2.8 SSW 19 22 10 12 1025.6 1025.5 0.0
26/03:00pm 14.5 9.7 8.7 68 2.9 SW 24 30 13 16 1025.5 1025.4 0.0
26/02:30pm 14.8 8.9 7.4 61 3.6 SSW 28 35 15 19 1025.4 1025.3 0.0
26/02:00pm 15.0 9.6 7.8 62 3.6 SSW 26 32 14 17 1025.3 1025.2 0.0
26/01:30pm 15.0 9.3 8.3 64 3.4 SSW 28 33 15 18 1025.3 1025.2 0.0
26/01:00pm 14.9 8.9 8.6 66 3.2 SSW 30 39 16 21 1025.5 1025.4 0.0
26/12:30pm 14.8 9.8 8.1 64 3.3 S 24 33 13 18 1025.7 1025.6 0.0
26/12:00pm 15.2 10.9 8.0 62 3.6 SSW 20 28 11 15 1026.0 1025.9 0.0
26/11:30am 15.0 9.1 7.5 61 3.7 SSW 28 37 15 20 1026.1 1026.0 0.0
26/11:00am 14.6 9.4 8.8 68 2.9 SSW 26 32 14 17 1026.1 1026.0 0.0
26/10:30am 14.8 8.9 9.0 68 2.9 SSW 30 39 16 21 1025.9 1025.8 0.0
26/10:00am 14.5 8.1 8.7 68 2.9 SW 32 37 17 20 1026.1 1026.0 0.0
26/09:30am 14.9 10.5 7.2 60 3.8 SSW 20 28 11 15 1026.1 1026.0 0.0
26/09:00am 14.7 8.2 8.2 65 3.2 SSW 32 41 17 22 1025.9 1025.8 3.0
26/08:30am 14.6 7.5 7.9 64 3.3 SSW 35 41 19 22 1025.6 1025.5 3.0
26/08:00am 14.7 8.2 9.1 69 2.9 SSW 33 46 18 25 1025.1 1025.0 3.0
26/07:30am 14.6 8.4 9.2 70 2.7 SSW 32 39 17 21 1024.7 1024.6 3.0
26/07:00am 14.8 9.0 8.1 64 3.4 SSW 28 35 15 19 1024.2 1024.1 3.0
26/06:30am 14.7 8.8 10.3 75 2.3 S 32 39 17 21 1023.9 1023.8 3.0
26/06:00am 14.4 7.6 9.4 72 2.6 SSW 35 48 19 26 1023.7 1023.6 3.0
26/05:30am 14.5 7.3 10.7 78 2.0 SSW 39 50 21 27 1023.3 1023.2 3.0
26/05:00am 15.0 9.0 10.0 72 2.6 S 32 43 17 23 1023.2 1023.1 3.0
26/04:30am 14.9 8.7 9.3 69 2.9 S 32 39 17 21 1023.0 1022.9 3.0
26/04:00am 14.6 8.7 10.6 77 2.1 SSW 32 43 17 23 1022.8 1022.7 3.0
26/03:30am 14.7 8.8 10.5 76 2.2 SSW 32 39 17 21 1022.7 1022.6 3.0
26/03:00am 14.4 8.5 10.6 78 2.0 SSW 32 39 17 21 1022.6 1022.5 3.0
26/02:30am 14.1 9.6 11.3 83 1.5 SSW 26 32 14 17 1022.7 1022.6 3.0
26/02:00am 14.4 8.8 11.4 82 1.6 SSW 32 39 17 21 1022.7 1022.6 3.0
26/01:30am 14.6 9.6 10.8 78 2.0 S 28 35 15 19 1022.7 1022.6 3.0
26/01:00am 14.3 7.9 9.5 73 2.5 S 33 41 18 22 1022.7 1022.6 3.0
26/12:30am 14.3 8.8 10.7 79 1.9 SSW 30 37 16 20 1022.6 1022.5 3.0
26/12:00am 14.7 8.8 10.3 75 2.3 SSW 32 39 17 21 1022.7 1022.6 3.0
 
Date/Time
CST
Temp
°C
App
Temp
°C
Dew
Point
Rel
Hum
%
Delta-T
°C
Wind Press
QNH
hPa
Press
MSL
hPa
Rain
since 9 am
mm
Dir
 
Spd
km/h
Gust
km/h
Spd
kts
Gust
kts
25/11:30pm 14.9 9.1 10.7 76 2.2 SSW 32 37 17 20 1022.8 1022.7 3.0
25/11:00pm 14.5 8.4 10.5 77 2.1 SSW 33 41 18 22 1022.7 1022.6 3.0
25/10:30pm 14.4 8.0 10.8 79 1.9 S 35 41 19 22 1022.6 1022.5 3.0
25/10:00pm 13.8 8.1 11.0 83 1.5 S 32 43 17 23 1022.4 1022.3 3.0
25/09:30pm 14.0 8.5 10.4 79 1.9 S 30 37 16 20 1022.3 1022.2 3.0
25/09:00pm 14.0 6.9 9.4 74 2.3 S 37 44 20 24 1021.8 1021.7 3.0
25/08:30pm 13.5 6.7 11.9 90 0.9 S 39 50 21 27 1021.8 1021.7 3.0
25/08:00pm 13.9 8.0 10.5 80 1.8 SSW 32 39 17 21 1021.4 1021.3 2.6
25/07:30pm 14.4 6.8 10.6 78 2.0 S 41 50 22 27 1021.1 1021.0 2.6
25/07:00pm 14.7 7.7 8.4 66 3.2 SSW 35 41 19 22 1021.1 1021.0 2.6
25/06:30pm 14.7 6.5 8.2 65 3.2 SSW 41 52 22 28 1020.7 1020.6 2.6
25/06:00pm 14.6 7.4 9.0 69 2.8 SSW 37 44 20 24 1020.3 1020.2 2.6
25/05:30pm 14.8 6.8 9.0 68 3.0 SSW 41 54 22 29 1019.8 1019.7 2.6
25/05:00pm 14.8 6.5 9.4 70 2.8 S 43 48 23 26 1019.6 1019.5 2.6
25/04:30pm 14.9 6.6 10.1 73 2.5 SSW 44 52 24 28 1019.1 1019.0 2.6
25/04:00pm 15.0 7.0 10.6 75 2.3 SSW 43 52 23 28 1018.8 1018.7 2.6
25/03:30pm 14.5 6.3 11.6 83 1.6 SSW 46 56 25 30 1018.5 1018.4 2.6
25/03:00pm 14.9 7.4 12.2 84 1.5 S 43 54 23 29 1018.3 1018.2 2.6
25/02:30pm 15.1 7.5 11.9 81 1.7 SSW 43 54 23 29 1017.8 1017.7 2.6
25/02:00pm 14.8 6.0 12.1 84 1.5 SSW 50 57 27 31 1017.4 1017.3 2.6
25/01:30pm 15.2 5.7 12.3 83 1.6 SSW 54 63 29 34 1017.1 1017.0 2.6
25/01:00pm 14.6 5.9 12.6 88 1.1 SSW 50 59 27 32 1017.0 1016.9 2.6
25/12:30pm 15.6 7.8 13.1 85 1.4 SSW 46 56 25 30 1017.0 1016.9 2.4
25/12:00pm 14.1 6.9 13.0 93 0.6 S 43 52 23 28 1017.1 1017.0 2.4
25/11:30am 14.1 5.8 12.5 90 0.9 SSW 48 61 26 33 1016.9 1016.8 1.8
25/11:00am 14.7 5.8 13.1 90 0.9 SSW 52 61 28 33 1016.6 1016.5 1.8
25/10:48am 14.6 6.8 13.0 90 0.9 SSW 46 61 25 33 1016.4 1016.3 1.8
25/10:30am 14.3 8.2 13.0 92 0.7 S 37 44 20 24 1016.7 1016.6 1.0
25/10:00am 15.0 9.6 12.1 83 1.6 SSE 32 41 17 22 1016.1 1016.0 0.0
25/09:30am 16.0 10.0 12.2 78 2.1 S 35 44 19 24 1015.6 1015.5 0.0
25/09:00am 15.5 10.3 11.5 77 2.2 SSW 30 35 16 19 1015.1 1015.1 10.4
25/08:30am 15.2 10.4 11.6 79 1.9 S 28 37 15 20 1014.7 1014.7 10.4
25/08:00am 14.8 10.0 11.8 82 1.6 S 28 35 15 19 1014.0 1014.0 10.4
25/07:30am 14.7 9.5 11.5 81 1.7 S 30 37 16 20 1013.4 1013.4 10.4
25/07:00am 14.5 10.0 11.3 81 1.7 S 26 35 14 19 1012.9 1012.9 10.4
25/06:30am 14.5 7.1 9.9 74 2.4 SSW 39 46 21 25 1012.3 1012.3 10.4
25/06:18am 14.2 7.9 9.8 75 2.3 S 33 44 18 24 1012.1 1012.1 10.4
25/06:00am 13.7 7.4 11.0 84 1.4 S 35 46 19 25 1011.8 1011.8 10.4
25/05:53am 13.5 6.9 11.2 86 1.2 S 37 46 20 25 1011.6 1011.6 10.4
25/05:30am 14.2 8.3 11.0 81 1.7 S 33 54 18 29 1011.1 1011.1 10.4
25/05:24am 13.6 9.0 12.2 91 0.8 S 28 46 15 25 1011.1 1011.1 10.4
25/05:00am 13.2 6.1 10.9 86 1.2 SSE 39 50 21 27 1010.5 1010.5 10.2
25/04:59am 13.4 6.5 11.5 88 1.0 S 39 50 21 27 1010.4 1010.4 10.2
25/04:30am 14.0 5.7 11.3 84 1.4 SSW 46 65 25 35 1009.6 1009.6 10.2
25/04:29am 14.2 6.2 11.0 81 1.7 SSW 44 65 24 35 1009.6 1009.6 10.2
25/04:00am 13.9 5.4 10.5 80 1.8 SSW 46 52 25 28 1009.3 1009.3 10.2
25/03:37am 13.7 4.6 11.2 85 1.3 S 50 69 27 37 1009.0 1009.0 10.2
25/03:30am 13.9 3.3 9.9 77 2.1 SSW 56 69 30 37 1009.0 1009.0 10.2
25/03:00am 14.2 5.2 11.5 84 1.4 SSW 50 61 27 33 1008.5 1008.5 10.2
25/02:30am 14.5 4.4 10.3 76 2.2 S 54 67 29 36 1007.9 1007.9 10.2
25/02:00am 14.2 4.0 10.2 77 2.1 S 54 63 29 34 1007.4 1007.4 10.2
25/01:45am 13.6 2.4 9.8 78 2.0 S 59 78 32 42 1007.2 1007.2 10.2
25/01:30am 14.3 3.0 10.7 79 1.9 SSW 61 76 33 41 1006.6 1006.6 10.2
25/01:06am 13.3 1.0 10.1 81 1.7 SSW 65 87 35 47 1005.9 1005.9 9.6
25/01:00am 14.8 3.5 10.8 77 2.1 SSW 61 76 33 41 1005.9 1005.9 9.6
25/12:36am 14.0 2.6 10.4 79 1.9 SSW 61 80 33 43 1005.6 1005.6 9.6
25/12:30am 14.2 1.7 10.6 79 1.9 SSW 67 82 36 44 1005.5 1005.5 9.6
25/12:09am 14.1 1.1 10.1 77 2.1 SSW 69 87 37 47 1004.9 1004.9 9.6
25/12:00am 14.1 0.8 9.7 75 2.3 SSW 70 87 38 47 1004.5 1004.4 9.6
 
Date/Time
CST
Temp
°C
App
Temp
°C
Dew
Point
Rel
Hum
%
Delta-T
°C
Wind Press
QNH
hPa
Press
MSL
hPa
Rain
since 9 am
mm
Dir
 
Spd
km/h
Gust
km/h
Spd
kts
Gust
kts
24/11:30pm 14.3 1.9 9.5 73 2.5 SSW 65 83 35 45 1004.0 1003.9 9.6
24/11:26pm 14.1 1.8 9.9 76 2.2 SSW 65 83 35 45 1004.0 1003.9 9.6
24/11:00pm 13.9 2.3 11.2 84 1.4 SSW 63 74 34 40 1003.7 1003.6 9.6
24/10:47pm 13.7 2.8 10.9 83 1.5 SSW 59 78 32 42 1003.6 1003.5 9.6
24/10:30pm 12.9 1.0 10.1 83 1.5 SSW 63 74 34 40 1003.4 1003.3 9.6
24/10:15pm 13.7 1.7 9.7 77 2.1 SW 63 82 34 44 1002.9 1002.8 9.4
24/10:00pm 13.7 1.6 10.7 82 1.6 SW 65 76 35 41 1002.8 1002.7 9.4
24/09:30pm 13.2 2.4 11.4 89 1.0 SW 59 76 32 41 1002.5 1002.4 9.4
24/09:04pm 13.7 3.2 10.9 83 1.5 SW 57 76 31 41 1002.2 1002.1 8.2
24/09:00pm 13.8 2.0 10.4 80 1.8 SW 63 76 34 41 1002.2 1002.1 8.2
24/08:45pm 13.4 1.2 10.2 81 1.7 SW 65 83 35 45 1002.0 1001.9 8.2
24/08:30pm 13.2 0.1 10.6 84 1.4 SW 70 85 38 46 1001.7 1001.6 8.2
24/08:00pm 12.8 0.2 10.3 85 1.3 SW 67 87 36 47 1001.9 1001.8 7.8
24/07:57pm 12.7 -0.2 9.3 80 1.7 SW 67 85 36 46 1001.9 1001.8 7.6
24/07:30pm 13.9 1.2 11.1 83 1.5 WSW 69 83 37 45 1001.6 1001.5 7.6
24/07:07pm 13.1 1.9 9.9 81 1.6 WSW 59 87 32 47 1001.3 1001.2 6.2
24/07:00pm 12.9 1.8 8.6 75 2.1 WSW 57 72 31 39 1001.5 1001.4 6.2
24/06:54pm 13.3 2.4 11.0 86 1.2 W 59 85 32 46 1001.6 1001.5 6.2
24/06:30pm 12.7 -0.5 10.2 85 1.3 W 70 100 38 54 1001.2 1001.1 5.0
24/06:22pm 12.9 -0.5 9.4 79 1.8 WSW 70 100 38 54 1000.6 1000.5 4.8
24/06:00pm 13.0 1.2 9.1 77 2.0 W 61 82 33 44 1000.9 1000.8 4.8
24/05:58pm 12.8 1.8 9.1 78 1.9 W 57 76 31 41 1000.9 1000.8 4.8
24/05:51pm 11.8 -0.5 8.6 81 1.6 WSW 63 82 34 44 1001.2 1001.1 4.8
24/05:37pm 13.2 -0.5 9.6 79 1.8 W 72 93 39 50 1001.0 1000.9 4.2
24/05:30pm 13.5 0.2 9.7 78 2.0 W 70 87 38 47 1001.1 1001.0 4.2
24/05:26pm 13.3 0.5 9.4 77 2.0 W 67 87 36 47 1000.9 1000.8 4.2
24/05:16pm 12.4 1.5 10.8 90 0.8 WNW 59 78 32 42 1001.6 1001.5 4.2
24/05:00pm 11.8 -0.1 10.0 89 0.9 WNW 63 76 34 41 1001.8 1001.7 4.0
24/04:53pm 11.1 -2.9 9.9 92 0.6 WNW 74 104 40 56 1002.2 1002.1 4.0
24/04:40pm 9.2 -4.4 6.1 81 1.4 WNW 67 109 36 59 1002.1 1002.0 2.8
24/04:39pm 11.5 -1.2 8.5 82 1.5 WNW 65 100 35 54 1002.2 1002.1 1.6
24/04:30pm 13.0 -0.5 8.1 72 2.4 WNW 69 82 37 44 1002.6 1002.5 1.2
24/04:01pm 13.3 0.8 9.4 77 2.0 WNW 65 83 35 45 1003.5 1003.4 1.2
24/04:00pm 13.2 0.5 8.3 72 2.4 WNW 65 82 35 44 1003.5 1003.4 1.2
24/03:35pm 13.1 0.1 7.3 68 2.8 W 65 83 35 45 1004.0 1003.9 1.2
24/03:30pm 13.3 0.4 9.0 75 2.2 W 67 80 36 43 1004.2 1004.1 1.2
24/03:18pm 13.7 0.9 7.9 68 2.9 W 65 83 35 45 1004.1 1004.0 1.2
24/03:00pm 13.3 3.2 8.8 74 2.3 WNW 52 67 28 36 1004.6 1004.5 1.2
24/02:30pm 12.7 2.1 7.0 68 2.8 W 52 63 28 34 1005.3 1005.3 0.4
24/02:00pm 13.8 3.2 9.8 77 2.1 WNW 56 67 30 36 1005.7 1005.7 0.4
24/01:43pm 13.9 2.6 9.3 74 2.3 WNW 59 80 32 43 1005.6 1005.6 0.4
24/01:30pm 14.6 5.7 9.2 70 2.8 W 46 57 25 31 1006.1 1006.1 0.4
24/01:20pm 13.3 2.7 8.4 72 2.4 W 54 78 29 42 1006.5 1006.5 0.4
24/01:14pm 12.2 0.0 7.5 73 2.3 W 61 83 33 45 1006.5 1006.5 0.4
24/01:10pm 12.8 1.3 7.3 69 2.7 W 57 83 31 45 1006.0 1006.0 0.2
24/01:08pm 13.5 2.8 7.9 69 2.8 W 54 76 29 41 1006.1 1006.1 0.2
24/01:00pm 14.5 3.4 8.0 65 3.2 W 56 69 30 37 1006.5 1006.5 0.2
24/12:34pm 13.7 3.1 8.3 70 2.7 W 54 76 29 41 1006.7 1006.7 0.2
24/12:30pm 14.3 4.0 8.3 67 3.0 W 52 63 28 34 1007.0 1007.0 0.2
24/12:00pm 12.9 1.5 9.2 78 1.9 WSW 59 74 32 40 1007.3 1007.3 0.0
24/11:53am 13.1 3.2 8.2 72 2.4 WSW 50 69 27 37 1007.3 1007.3 0.0
24/11:30am 14.3 4.2 7.4 63 3.4 WSW 50 59 27 32 1007.7 1007.7 0.0
24/11:00am 13.0 4.2 7.9 71 2.5 WSW 44 61 24 33 1008.2 1008.2 0.0
24/10:59am 12.8 3.6 7.9 72 2.4 SW 46 70 25 38 1008.2 1008.2 0.0
24/10:42am 13.7 2.0 7.9 68 2.9 WSW 59 80 32 43 1007.7 1007.7 0.0
24/10:30am 14.2 2.7 7.0 62 3.5 WSW 57 69 31 37 1007.6 1007.6 0.0
24/10:00am 13.9 1.8 7.9 67 3.0 WSW 61 72 33 39 1007.5 1007.5 0.0
24/09:30am 13.8 1.6 9.0 73 2.4 WSW 63 82 34 44 1007.3 1007.3 0.0
24/09:24am 14.0 1.8 8.8 71 2.6 WSW 63 82 34 44 1007.1 1007.1 0.0
24/09:00am 13.9 2.0 8.5 70 2.7 WSW 61 72 33 39 1007.2 1007.2 2.8
24/08:30am 14.0 2.3 9.2 73 2.5 WSW 61 72 33 39 1007.2 1007.2 2.8
24/08:00am 13.7 1.6 9.2 74 2.3 WSW 63 82 34 44 1006.9 1006.9 2.8
24/07:30am 13.3 1.5 10.5 83 1.5 WSW 63 83 34 45 1006.9 1006.9 2.8
24/07:19am 13.2 1.0 10.4 83 1.5 WSW 65 85 35 46 1006.4 1006.4 2.8
24/07:00am 12.9 1.0 9.9 82 1.5 WSW 63 78 34 42 1006.8 1006.8 2.8
24/06:30am 12.7 -0.2 10.6 87 1.1 WSW 69 80 37 43 1006.5 1006.5 2.4
24/06:00am 12.8 -0.2 11.0 89 0.9 WSW 70 85 38 46 1006.0 1006.0 2.2
24/05:37am 14.0 3.3 12.7 92 0.7 WSW 61 80 33 43 1005.5 1005.5 1.0
24/05:30am 14.2 3.0 12.6 90 0.9 WSW 63 72 34 39 1005.5 1005.5 0.6
24/05:21am 14.5 7.3 13.0 91 0.8 WNW 43 72 23 39 1005.8 1005.8 0.4
24/05:19am 14.9 8.4 12.9 88 1.1 NW 39 59 21 32 1006.1 1006.1 0.0
24/05:17am 15.2 9.0 12.7 85 1.4 NW 37 46 20 25 1006.2 1006.2 0.0
24/05:00am 15.9 9.7 13.9 88 1.1 NNW 39 46 21 25 1006.0 1006.0 0.0
24/04:30am 15.9 9.7 13.7 87 1.2 NNW 39 48 21 26 1006.2 1006.2 0.0
24/04:00am 15.6 10.3 14.3 92 0.7 N 35 43 19 23 1006.5 1006.5 0.0
24/03:30am 15.8 10.9 14.3 91 0.9 NNW 33 41 18 22 1007.0 1007.0 0.0
24/03:00am 15.7 11.3 14.2 91 0.9 NNW 30 35 16 19 1007.6 1007.6 0.0
24/02:30am 15.9 10.9 14.1 89 1.0 NNW 33 41 18 22 1008.2 1008.2 0.0
24/02:00am 15.7 10.7 13.9 89 1.0 NNW 33 39 18 21 1008.8 1008.8 0.0
24/01:30am 15.8 10.7 13.6 87 1.2 NNW 33 39 18 21 1009.5 1009.5 0.0
24/01:00am 15.9 10.5 13.9 88 1.1 NNW 35 39 19 21 1010.1 1010.1 0.0
24/12:30am 15.9 11.0 13.7 87 1.2 NW 32 37 17 20 1010.5 1010.5 0.0
24/12:00am 16.1 11.1 13.4 84 1.5 NNW 32 37 17 20 1010.8 1010.8 0.0
 
Date/Time
CST
Temp
°C
App
Temp
°C
Dew
Point
Rel
Hum
%
Delta-T
°C
Wind Press
QNH
hPa
Press
MSL
hPa
Rain
since 9 am
mm
Dir
 
Spd
km/h
Gust
km/h
Spd
kts
Gust
kts
23/11:30pm 16.1 11.7 12.8 81 1.8 NW 28 33 15 18 1011.3 1011.3 0.0
23/11:00pm 16.1 12.0 12.7 80 1.9 NW 26 32 14 17 1011.7 1011.7 0.0
23/10:30pm 16.0 12.2 12.4 79 2.0 NW 24 30 13 16 1012.3 1012.3 0.0
23/10:00pm 15.9 12.6 11.7 76 2.3 WNW 20 26 11 14 1012.7 1012.7 0.0
23/09:30pm 15.9 12.8 11.7 76 2.3 WNW 19 22 10 12 1013.1 1013.1 0.0
23/09:00pm 15.8 12.7 11.6 76 2.3 WNW 19 22 10 12 1013.4 1013.4 0.0
23/08:30pm 15.7 12.5 11.1 74 2.5 W 19 20 10 11 1013.6 1013.6 0.0
23/08:00pm 15.8 13.0 11.2 74 2.5 W 17 20 9 11 1013.8 1013.8 0.0
23/07:30pm 15.9 13.8 11.1 73 2.6 W 13 17 7 9 1014.1 1014.1 0.0
23/07:00pm 15.9 13.8 11.1 73 2.6 WSW 13 15 7 8 1014.4 1014.4 0.0
23/06:30pm 15.8 12.7 10.3 70 2.9 WSW 17 19 9 10 1014.4 1014.4 0.0
23/06:00pm 15.8 13.3 11.0 73 2.6 WSW 15 19 8 10 1014.5 1014.5 0.0

Other Formats:

Comma delimited format used in spreadsheet applications
http://www.bom.gov.au/fwo/IDS60801/IDS60801.94804.axf

JavaScript Object Notation format (JSON) in row-major order
http://www.bom.gov.au/fwo/IDS60801/IDS60801.94804.json